Time;durP1;ratioP1;P1;durP2;ratioP2;P2;SDS_P1;SDS_P2;PMS_P1;PMS_P2;Temp;Humidity;BMP_temperature;BMP_pressure;BME280_temperature;BME280_humidity;BME280_pressure;Samples;Min_cycle;Max_cycle;Signal;HPM_P1;HPM_P2
2023/09/18 00:01:42;;;;;;;;;;;;;;;28.73;73.63;100901.31;5002991;28;69838;-37
2023/09/18 00:04:12;;;;;;;;;;;;;;;28.74;75.96;100902.97;4996209;28;66842;-37
2023/09/18 00:06:41;;;;;;;;;;;;;;;28.74;78.06;100908.38;5011205;28;70664;-37
2023/09/18 00:09:13;;;;;;;;;;;;;;;28.73;79.74;100914.81;5010642;28;66683;-37
2023/09/18 00:11:43;;;;;;;;;;;;;;;28.75;81.31;100915.41;5012600;28;69080;-36
2023/09/18 00:14:35;;;;;;;;;;;;;;;28.74;80.85;100919.16;5019089;28;66996;-35
2023/09/18 00:17:14;;;;;;;;;;;;;;;28.78;81.58;100930.38;5019549;28;70305;-36
2023/09/18 00:19:44;;;;;;;;;;;;;;;28.75;82.46;100942.41;5017590;28;66830;-37
2023/09/18 00:22:14;;;;;;;;;;;;;;;28.76;82.93;100941.41;5023126;28;69662;-37
2023/09/18 00:24:43;;;;;;;;;;;;;;;28.81;81.96;100941.63;5015712;28;67247;-36
2023/09/18 00:27:13;;;;;;;;;;;;;;;28.84;80.93;100957.41;5017325;28;70313;-36
2023/09/18 00:29:43;;;;;;;;;;;;;;;28.90;82.25;100961.97;5008498;28;65561;-37
2023/09/18 00:32:12;;;;;;;;;;;;;;;28.95;83.92;100974.88;5006202;28;70481;-37
2023/09/18 00:34:51;;;;;;;;;;;;;;;28.98;82.52;100979.03;5012819;28;65925;-38
2023/09/18 00:37:21;;;;;;;;;;;;;;;29.01;82.71;100989.44;4987819;28;69562;-37
2023/09/18 00:39:51;;;;;;;;;;;;;;;29.01;84.10;100992.13;4999298;28;66981;-40
2023/09/18 00:42:22;;;;;;;;;;;;;;;29.03;83.16;100999.03;5013065;28;70868;-38
2023/09/18 00:44:52;;;;;;;;;;;;;;;29.06;83.24;101003.16;5002727;28;65222;-37
2023/09/18 00:47:21;;;;;;;;;;;;;;;29.11;82.89;101006.06;5018936;28;70417;-37
2023/09/18 00:49:52;;;;;;;;;;;;;;;29.14;79.91;101008.38;5008094;28;66215;-38
2023/09/18 00:52:22;;;;;;;;;;;;;;;29.17;79.36;101016.09;5012549;28;69368;-38
2023/09/18 00:54:53;;;;;;;;;;;;;;;29.23;77.94;101020.66;5009940;28;65843;-37
2023/09/18 00:57:23;;;;;;;;;;;;;;;29.26;76.89;101019.41;5025398;28;70380;-37
2023/09/18 00:59:52;;;;;;;;;;;;;;;29.28;76.08;101023.56;5019750;28;66551;-38
2023/09/18 01:02:23;;;;;;;;;;;;;;;29.32;75.12;101019.41;5031017;28;71017;-37
2023/09/18 01:04:53;;;;;;;;;;;;;;;29.35;74.42;101034.38;5020305;28;67148;-38
2023/09/18 01:07:23;;;;;;;;;;;;;;;29.37;74.24;101033.13;5012354;28;69417;-36
2023/09/18 01:09:55;;;;;;;;;;;;;;;29.39;73.28;101031.06;5002721;28;65912;-36
2023/09/18 01:12:40;;;;;;;;;;;;;;;29.42;73.65;101028.97;5021761;28;70500;-37
2023/09/18 01:15:13;;;;;;;;;;;;;;;29.45;73.36;101024.00;5021185;28;66897;-35
2023/09/18 01:17:43;;;;;;;;;;;;;;;29.47;72.85;101021.06;5003649;28;69335;-37
2023/09/18 01:20:13;;;;;;;;;;;;;;;29.48;72.80;101034.41;5041240;28;67274;-37
2023/09/18 01:22:43;;;;;;;;;;;;;;;29.50;73.24;101031.47;5027439;28;69412;-36
2023/09/18 01:25:13;;;;;;;;;;;;;;;29.51;72.62;101033.97;5021658;28;66690;-37
2023/09/18 01:27:42;;;;;;;;;;;;;;;29.53;72.67;101033.75;5025938;28;70106;-36
2023/09/18 01:30:12;;;;;;;;;;;;;;;29.54;72.57;101033.56;5034143;28;67004;-45
2023/09/18 01:32:45;;;;;;;;;;;;;;;29.56;71.76;101036.03;5019220;28;70330;-38
2023/09/18 01:35:15;;;;;;;;;;;;;;;29.59;71.97;101035.66;5016677;28;66193;-37
2023/09/18 01:37:45;;;;;;;;;;;;;;;29.59;71.47;101031.06;5026359;28;69756;-36
2023/09/18 01:40:15;;;;;;;;;;;;;;;29.62;71.33;101032.53;5040807;28;66594;-37
2023/09/18 01:42:46;;;;;;;;;;;;;;;29.62;71.34;101032.53;5004260;28;70183;-37
2023/09/18 01:45:16;;;;;;;;;;;;;;;29.65;71.67;101029.44;5004364;28;65979;-37
2023/09/18 01:47:46;;;;;;;;;;;;;;;29.68;71.22;101034.44;5023861;28;69696;-35
2023/09/18 01:50:16;;;;;;;;;;;;;;;29.71;71.15;101034.00;5028564;28;66842;-38
2023/09/18 01:52:45;;;;;;;;;;;;;;;29.72;71.46;101024.03;5002370;28;70754;-37
2023/09/18 01:55:15;;;;;;;;;;;;;;;29.75;71.38;101029.81;5021665;28;66083;-37
2023/09/18 01:57:44;;;;;;;;;;;;;;;29.77;71.26;101022.34;5008623;28;69741;-36
2023/09/18 02:00:14;;;;;;;;;;;;;;;29.79;70.46;101022.97;5013386;28;66528;-36
2023/09/18 02:02:47;;;;;;;;;;;;;;;29.81;70.41;101023.59;5022167;28;69914;-38
2023/09/18 02:05:36;;;;;;;;;;;;;;;29.83;71.01;101021.50;5005312;28;66303;-38
2023/09/18 02:08:06;;;;;;;;;;;;;;;29.87;70.44;101021.09;5021641;28;70338;-37
2023/09/18 02:10:35;;;;;;;;;;;;;;;29.88;71.08;101017.34;5004611;28;65679;-37
2023/09/18 02:13:05;;;;;;;;;;;;;;;29.89;70.22;101013.59;5005728;28;69520;-36
2023/09/18 02:15:36;;;;;;;;;;;;;;;29.91;70.45;101001.53;4996869;28;65538;-37
2023/09/18 02:18:07;;;;;;;;;;;;;;;29.94;70.76;101000.28;5014263;28;70061;-36
2023/09/18 02:20:44;;;;;;;;;;;;;;;29.96;70.79;101000.91;5022074;28;66680;-37
2023/09/18 02:23:14;;;;;;;;;;;;;;;30.00;70.51;101004.84;5025505;28;69400;-37
2023/09/18 02:25:44;;;;;;;;;;;;;;;30.02;70.64;101002.75;5025645;28;65557;-38
2023/09/18 02:28:15;;;;;;;;;;;;;;;30.05;70.01;101008.56;5002562;28;69047;-36
2023/09/18 02:30:45;;;;;;;;;;;;;;;30.09;69.82;101006.28;5022894;28;65806;-37
2023/09/18 02:33:15;;;;;;;;;;;;;;;30.11;69.91;101009.59;5016035;28;69091;-37
2023/09/18 02:35:45;;;;;;;;;;;;;;;30.13;70.42;101014.81;5002891;28;67597;-37
2023/09/18 02:38:14;;;;;;;;;;;;;;;30.16;69.88;101008.97;5020765;28;70376;-39
2023/09/18 02:40:44;;;;;;;;;;;;;;;30.18;70.42;101007.72;5006839;28;66845;-37
2023/09/18 02:43:13;;;;;;;;;;;;;;;30.19;69.75;101003.94;5018289;28;70091;-37
2023/09/18 02:45:43;;;;;;;;;;;;;;;30.20;69.79;101008.34;5020375;28;66384;-37
2023/09/18 02:48:13;;;;;;;;;;;;;;;30.23;70.04;101013.34;5016524;28;70421;-37
2023/09/18 02:50:43;;;;;;;;;;;;;;;30.24;69.36;101008.78;5012128;28;66582;-37
2023/09/18 02:53:19;;;;;;;;;;;;;;;30.25;69.61;101003.13;5004576;28;70855;-36
2023/09/18 02:55:53;;;;;;;;;;;;;;;30.26;69.81;100999.41;5019505;28;66716;-37
2023/09/18 02:58:25;;;;;;;;;;;;;;;30.31;69.45;100995.19;5006373;28;70253;-37
2023/09/18 03:01:02;;;;;;;;;;;;;;;30.33;69.65;100991.25;5020277;28;66847;-37
2023/09/18 03:03:35;;;;;;;;;;;;;;;30.38;69.18;100998.72;5011930;28;69320;-36
2023/09/18 03:06:06;;;;;;;;;;;;;;;30.42;69.11;100992.69;5022409;28;66479;-37
2023/09/18 03:08:35;;;;;;;;;;;;;;;30.46;69.25;100998.50;5029662;28;69824;-40
2023/09/18 03:11:12;;;;;;;;;;;;;;;30.48;69.35;101002.66;5005553;28;66561;-38
2023/09/18 03:13:46;;;;;;;;;;;;;;;30.51;69.30;101001.38;5002316;28;70264;-37
2023/09/18 03:16:19;;;;;;;;;;;;;;;30.55;69.08;101001.78;5015272;28;66418;-38
2023/09/18 03:18:49;;;;;;;;;;;;;;;30.58;68.83;100993.22;5017913;28;69980;-38
2023/09/18 03:21:19;;;;;;;;;;;;;;;30.61;68.89;100990.91;4992818;28;66458;-38
2023/09/18 03:23:50;;;;;;;;;;;;;;;30.63;68.86;100988.81;5007667;28;68588;-37
2023/09/18 03:26:19;;;;;;;;;;;;;;;30.65;68.98;100981.31;4990411;28;67198;-37
2023/09/18 03:28:49;;;;;;;;;;;;;;;30.67;68.85;100979.25;5018342;28;70272;-38
2023/09/18 03:31:19;;;;;;;;;;;;;;;30.70;68.53;100970.69;4997648;28;67083;-37
2023/09/18 03:33:49;;;;;;;;;;;;;;;30.66;68.67;100977.56;5021639;28;70421;-37
2023/09/18 03:36:21;;;;;;;;;;;;;;;30.75;68.40;100977.31;5030981;28;66980;-37
2023/09/18 03:38:51;;;;;;;;;;;;;;;30.77;68.15;100978.75;5004826;28;71351;-36
2023/09/18 03:41:21;;;;;;;;;;;;;;;30.79;68.24;100982.09;5019234;28;66236;-37
2023/09/18 03:43:50;;;;;;;;;;;;;;;30.83;68.19;100971.66;5011746;28;69870;-37
2023/09/18 03:46:20;;;;;;;;;;;;;;;30.85;68.33;100969.59;5001089;28;68371;-37
2023/09/18 03:48:50;;;;;;;;;;;;;;;30.87;68.06;100965.59;5002235;28;70569;-36
2023/09/18 03:51:20;;;;;;;;;;;;;;;30.90;68.17;100969.75;5015737;28;66892;-38
2023/09/18 03:53:52;;;;;;;;;;;;;;;30.92;67.93;100959.50;4997593;28;62803;-37
2023/09/18 03:56:22;;;;;;;;;;;;;;;30.94;68.08;100960.97;5018207;28;66974;-36
2023/09/18 03:58:52;;;;;;;;;;;;;;;30.97;68.24;100959.69;5002259;28;70163;-37
2023/09/18 04:01:22;;;;;;;;;;;;;;;30.98;67.92;100964.09;5005419;28;67379;-37
2023/09/18 04:03:55;;;;;;;;;;;;;;;31.01;68.09;100960.94;5018477;28;69230;-37
2023/09/18 04:06:25;;;;;;;;;;;;;;;31.03;67.82;100969.66;5002381;28;65843;-39
2023/09/18 04:08:54;;;;;;;;;;;;;;;31.05;67.57;100964.84;5017695;28;70022;-38
2023/09/18 04:11:26;;;;;;;;;;;;;;;31.09;67.90;100968.78;5000582;28;65702;-38
2023/09/18 04:13:55;;;;;;;;;;;;;;;31.10;67.61;100961.50;5016720;28;69654;-36
2023/09/18 04:16:26;;;;;;;;;;;;;;;31.11;67.57;100958.53;5016410;28;65674;-37
2023/09/18 04:18:55;;;;;;;;;;;;;;;31.14;67.60;100955.38;5013110;28;70272;-39
2023/09/18 04:21:25;;;;;;;;;;;;;;;30.91;67.55;100892.84;5009744;28;67145;-38
2023/09/18 04:23:57;;;;;;;;;;;;;;;31.19;67.38;100934.94;5015287;28;70248;-37
2023/09/18 04:26:30;;;;;;;;;;;;;;;31.21;67.66;100930.16;4993799;28;66554;-37
2023/09/18 04:29:00;;;;;;;;;;;;;;;31.22;67.11;100927.19;5008795;28;69730;-37
2023/09/18 04:31:31;;;;;;;;;;;;;;;31.24;67.30;100932.41;5018138;28;66892;-37
2023/09/18 04:34:02;;;;;;;;;;;;;;;31.26;67.29;100927.56;4993515;28;70646;-37
2023/09/18 04:36:32;;;;;;;;;;;;;;;31.28;67.15;100909.22;5027758;28;64844;-37
2023/09/18 04:39:04;;;;;;;;;;;;;;;31.31;67.21;100903.34;5001603;28;70392;-36
2023/09/18 04:41:34;;;;;;;;;;;;;;;31.33;67.13;100901.25;5019129;28;66318;-37
2023/09/18 04:44:07;;;;;;;;;;;;;;;31.36;66.73;100895.41;4996553;28;69711;-38
2023/09/18 04:46:37;;;;;;;;;;;;;;;31.39;66.84;100900.38;5020390;28;66768;-37
2023/09/18 04:49:07;;;;;;;;;;;;;;;31.41;66.51;100892.88;5018512;28;69345;-37
2023/09/18 04:51:37;;;;;;;;;;;;;;;31.44;66.46;100897.84;5001534;28;66885;-37
2023/09/18 04:54:07;;;;;;;;;;;;;;;31.45;66.52;100883.22;5019534;28;70326;-36
2023/09/18 04:56:37;;;;;;;;;;;;;;;31.48;66.63;100877.38;5008405;28;65587;-38
2023/09/18 04:59:06;;;;;;;;;;;;;;;31.51;66.44;100876.91;5035516;28;70054;-36
2023/09/18 05:01:36;;;;;;;;;;;;;;;31.52;66.38;100873.16;5009927;28;66861;-36
2023/09/18 05:04:08;;;;;;;;;;;;;;;31.55;66.28;100872.69;5027077;28;69825;-36
2023/09/18 05:06:39;;;;;;;;;;;;;;;31.57;66.06;100876.00;5004885;28;66910;-37
2023/09/18 05:09:09;;;;;;;;;;;;;;;31.59;66.26;100873.91;5023898;28;70442;-38
2023/09/18 05:11:41;;;;;;;;;;;;;;;31.60;66.20;100872.84;5022925;28;65985;-37
2023/09/18 05:14:12;;;;;;;;;;;;;;;31.65;66.26;100871.34;5023266;28;70492;-37
2023/09/18 05:16:42;;;;;;;;;;;;;;;31.66;66.24;100862.16;5039523;28;65758;-38
2023/09/18 05:19:12;;;;;;;;;;;;;;;31.67;65.83;100859.22;5027996;28;69460;-37
2023/09/18 05:21:41;;;;;;;;;;;;;;;31.70;65.82;100857.94;5018390;28;66886;-37
2023/09/18 05:24:11;;;;;;;;;;;;;;;31.72;65.78;100840.38;5035568;28;70707;-37
2023/09/18 05:26:41;;;;;;;;;;;;;;;31.75;65.42;100839.09;5026863;28;66349;-38
2023/09/18 05:29:10;;;;;;;;;;;;;;;31.76;65.32;100832.59;5018726;28;70223;-38
2023/09/18 05:31:40;;;;;;;;;;;;;;;31.77;65.40;100832.38;5014086;28;65412;-38
2023/09/18 05:34:10;;;;;;;;;;;;;;;31.80;65.46;100833.81;5025256;28;69509;-38
2023/09/18 05:36:39;;;;;;;;;;;;;;;31.84;64.99;100821.44;5022419;28;66618;-38
2023/09/18 05:39:12;;;;;;;;;;;;;;;31.86;65.18;100818.53;5021785;28;70327;-36
2023/09/18 05:42:02;;;;;;;;;;;;;;;31.87;65.29;100810.13;5025504;28;65973;-39
2023/09/18 05:44:33;;;;;;;;;;;;;;;31.91;64.87;100810.53;5028590;28;70625;-38
2023/09/18 05:47:38;;;;;;;;;;;;;;;31.92;65.09;100804.06;4991080;28;67143;-39
2023/09/18 05:50:52;;;;;;;;;;;;;;;31.94;65.01;100805.50;5021549;28;70295;-38
2023/09/18 05:53:12;;;;;;;;;;;;;;;31.98;65.23;100789.56;5017926;28;66146;-37
2023/09/18 05:55:48;;;;;;;;;;;;;;;32.01;64.83;100791.81;5011778;28;70405;-38
2023/09/18 05:58:22;;;;;;;;;;;;;;;32.02;64.78;100783.47;5015027;28;66681;-38
2023/09/18 06:01:13;;;;;;;;;;;;;;;32.03;64.76;100782.41;5010886;28;69597;-38
2023/09/18 06:04:03;;;;;;;;;;;;;;;32.08;64.71;100776.28;5020239;28;66618;-37
2023/09/18 06:06:35;;;;;;;;;;;;;;;32.11;64.44;100769.56;5021380;28;69314;-38
2023/09/18 06:09:05;;;;;;;;;;;;;;;32.14;64.27;100769.13;5005681;28;66564;-38
2023/09/18 06:11:34;;;;;;;;;;;;;;;32.18;64.47;100762.16;5019688;28;69862;-37
2023/09/18 06:14:04;;;;;;;;;;;;;;;32.19;64.46;100761.09;5016347;28;65984;-37
2023/09/18 06:16:34;;;;;;;;;;;;;;;32.24;64.44;100761.25;4997850;28;70124;-38
2023/09/18 06:19:03;;;;;;;;;;;;;;;32.26;64.23;100759.09;5027028;28;66921;-39
2023/09/18 06:21:33;;;;;;;;;;;;;;;32.28;64.07;100746.13;5015878;28;70590;-38
2023/09/18 06:24:03;;;;;;;;;;;;;;;32.30;63.88;100738.59;5032308;28;66425;-37
2023/09/18 06:26:58;;;;;;;;;;;;;;;32.32;64.28;100732.91;5018179;28;69965;-37
2023/09/18 06:29:28;;;;;;;;;;;;;;;32.36;64.22;100725.97;5019356;28;66032;-37
2023/09/18 06:31:58;;;;;;;;;;;;;;;32.38;64.11;100719.25;5000460;28;69510;-38
2023/09/18 06:34:30;;;;;;;;;;;;;;;32.41;64.01;100716.06;5019983;28;66268;-38
2023/09/18 06:37:00;;;;;;;;;;;;;;;32.45;63.99;100717.22;5015741;28;69956;-37
2023/09/18 06:39:29;;;;;;;;;;;;;;;32.49;63.79;100713.03;5019505;28;66397;-37
2023/09/18 06:41:59;;;;;;;;;;;;;;;32.55;63.66;100719.41;5023133;28;69471;-37
2023/09/18 06:44:28;;;;;;;;;;;;;;;32.59;63.58;100708.91;5020745;28;66718;-38
2023/09/18 06:46:58;;;;;;;;;;;;;;;32.61;63.74;100695.91;5019611;28;69478;-38
2023/09/18 06:49:28;;;;;;;;;;;;;;;32.66;63.37;100687.88;5004101;28;66869;-36
2023/09/18 06:51:58;;;;;;;;;;;;;;;32.70;63.32;100683.63;4997029;28;69387;-37
2023/09/18 06:54:27;;;;;;;;;;;;;;;32.74;63.21;100681.28;5006157;28;66316;-38
2023/09/18 06:56:57;;;;;;;;;;;;;;;32.75;63.00;100675.59;5015095;28;69878;-37
2023/09/18 06:59:27;;;;;;;;;;;;;;;32.79;63.05;100674.06;5016257;28;66482;-37
2023/09/18 07:02:00;;;;;;;;;;;;;;;32.82;63.13;100670.88;4998832;28;69236;-38
2023/09/18 07:04:29;;;;;;;;;;;;;;;32.84;62.53;100668.72;5013256;28;66436;-38
2023/09/18 07:06:59;;;;;;;;;;;;;;;32.88;63.01;100667.19;5013834;28;70230;-38
2023/09/18 07:09:30;;;;;;;;;;;;;;;32.92;62.94;100668.34;5021178;28;65999;-38
2023/09/18 07:12:00;;;;;;;;;;;;;;;32.93;62.93;100667.31;5018720;28;69524;-37
2023/09/18 07:14:29;;;;;;;;;;;;;;;32.98;62.56;100654.88;5014612;28;67050;-38
2023/09/18 07:17:00;;;;;;;;;;;;;;;33.01;62.34;100649.81;5015290;28;70581;-42
2023/09/18 07:19:30;;;;;;;;;;;;;;;33.09;62.31;100637.75;4993026;28;65227;-37
2023/09/18 07:22:00;;;;;;;;;;;;;;;33.13;62.04;100634.31;4999498;28;70395;-37
2023/09/18 07:24:29;;;;;;;;;;;;;;;33.21;61.92;100634.97;5021461;28;66680;-37
2023/09/18 07:26:59;;;;;;;;;;;;;;;33.26;61.56;100638.63;5020716;28;70536;-37
2023/09/18 07:29:28;;;;;;;;;;;;;;;33.30;61.48;100645.22;5022136;28;65790;-36
2023/09/18 07:31:58;;;;;;;;;;;;;;;33.37;61.28;100639.63;4983577;28;70405;-39
2023/09/18 07:34:28;;;;;;;;;;;;;;;33.42;60.81;100641.63;4986738;28;66582;-38
2023/09/18 07:36:58;;;;;;;;;;;;;;;33.48;61.02;100646.91;5018861;28;69976;-38
2023/09/18 07:39:27;;;;;;;;;;;;;;;33.51;60.53;100646.44;5013351;28;65745;-37
2023/09/18 07:41:58;;;;;;;;;;;;;;;33.54;60.75;100651.44;5026344;28;69792;-37
2023/09/18 07:44:27;;;;;;;;;;;;;;;33.57;60.87;100650.09;5018052;28;65861;-37
2023/09/18 07:46:57;;;;;;;;;;;;;;;33.63;60.59;100645.56;5000544;28;70036;-38
2023/09/18 07:49:27;;;;;;;;;;;;;;;33.69;60.11;100641.91;4999500;28;65727;-36
2023/09/18 07:51:56;;;;;;;;;;;;;;;33.73;60.06;100646.59;5016818;28;70729;-38
2023/09/18 07:54:35;;;;;;;;;;;;;;;33.75;60.33;100647.16;4987386;28;66185;-38
2023/09/18 07:57:09;;;;;;;;;;;;;;;33.82;60.15;100641.56;5003177;28;69255;-38
2023/09/18 07:59:42;;;;;;;;;;;;;;;33.85;60.03;100641.09;5022327;28;66368;-38
2023/09/18 08:02:12;;;;;;;;;;;;;;;33.93;59.49;100637.13;5025316;28;69403;-38
2023/09/18 08:04:42;;;;;;;;;;;;;;;34.00;59.61;100638.59;5003406;28;66742;-38
2023/09/18 08:07:12;;;;;;;;;;;;;;;34.07;59.05;100629.47;4983543;28;71074;-36
2023/09/18 08:09:43;;;;;;;;;;;;;;;34.10;58.84;100616.22;4999873;28;66014;-38
2023/09/18 08:12:12;;;;;;;;;;;;;;;34.14;59.06;100609.19;5021077;28;70423;-37
2023/09/18 08:14:51;;;;;;;;;;;;;;;34.17;58.42;100600.53;5008420;28;66794;-37
2023/09/18 08:17:32;;;;;;;;;;;;;;;34.21;58.55;100606.28;5009004;28;69263;-37
2023/09/18 08:20:03;;;;;;;;;;;;;;;34.22;58.53;100603.31;5019115;28;66689;-37
2023/09/18 08:22:33;;;;;;;;;;;;;;;34.22;58.82;100597.88;5018706;28;71240;-37
2023/09/18 08:25:02;;;;;;;;;;;;;;;34.24;58.88;100597.59;5015357;28;67112;-37
2023/09/18 08:27:32;;;;;;;;;;;;;;;34.28;58.27;100587.88;5016174;28;70470;-37
2023/09/18 08:30:02;;;;;;;;;;;;;;;34.31;58.93;100594.72;5026395;28;65567;-39
2023/09/18 08:32:33;;;;;;;;;;;;;;;34.33;58.26;100603.47;5023883;28;69597;-37
2023/09/18 08:35:04;;;;;;;;;;;;;;;34.31;58.84;100600.19;5026463;28;65974;-36
2023/09/18 08:37:33;;;;;;;;;;;;;;;34.36;58.93;100597.53;5020432;28;70505;-38
2023/09/18 08:40:09;;;;;;;;;;;;;;;34.39;58.51;100600.56;4999902;28;66626;-39
2023/09/18 08:42:40;;;;;;;;;;;;;;;34.46;58.40;100603.09;4995657;28;69872;-38
2023/09/18 08:45:10;;;;;;;;;;;;;;;34.48;58.26;100617.28;5020103;28;66873;-38
2023/09/18 08:47:40;;;;;;;;;;;;;;;34.48;57.89;100607.22;5027545;28;70210;-37
2023/09/18 08:50:10;;;;;;;;;;;;;;;34.52;58.18;100601.25;5019636;28;66012;-38
2023/09/18 08:52:41;;;;;;;;;;;;;;;34.52;58.07;100601.25;5004207;28;70684;-38
2023/09/18 08:55:11;;;;;;;;;;;;;;;34.55;58.23;100606.22;5019909;28;66911;-36
2023/09/18 08:57:42;;;;;;;;;;;;;;;34.54;58.20;100602.66;5006033;28;70595;-37
2023/09/18 09:00:16;;;;;;;;;;;;;;;34.50;58.21;100601.53;5019141;28;65920;-37
2023/09/18 09:02:48;;;;;;;;;;;;;;;34.50;58.44;100590.63;5018590;28;68591;-41
2023/09/18 09:05:18;;;;;;;;;;;;;;;34.47;58.64;100588.41;5016459;28;66327;-38
2023/09/18 09:07:49;;;;;;;;;;;;;;;34.50;58.01;100585.19;4990365;28;70092;-38
2023/09/18 09:10:19;;;;;;;;;;;;;;;34.51;58.34;100589.56;4997661;28;66373;-37
2023/09/18 09:12:50;;;;;;;;;;;;;;;34.50;58.54;100587.09;5015936;28;72219;-38
2023/09/18 09:15:20;;;;;;;;;;;;;;;34.46;58.70;100573.13;5000734;28;66681;-36
2023/09/18 09:17:52;;;;;;;;;;;;;;;34.45;58.36;100576.94;5030773;28;70435;-36
2023/09/18 09:20:21;;;;;;;;;;;;;;;34.07;60.80;100573.13;5015186;28;66119;-37
2023/09/18 09:22:53;;;;;;;;;;;;;;;33.82;61.73;100570.81;5011849;28;69121;-37
2023/09/18 09:25:26;;;;;;;;;;;;;;;33.69;62.66;100572.00;5013949;28;66464;-39
2023/09/18 09:27:56;;;;;;;;;;;;;;;33.57;63.25;100582.97;5008996;28;69323;-39
2023/09/18 09:30:26;;;;;;;;;;;;;;;33.54;63.59;100580.72;5022227;28;66554;-40
2023/09/18 09:32:57;;;;;;;;;;;;;;;33.47;64.38;100579.19;4996542;28;70148;-40
2023/09/18 09:35:29;;;;;;;;;;;;;;;33.41;64.04;100580.19;5015349;28;66239;-38
2023/09/18 09:38:03;;;;;;;;;;;;;;;33.37;64.61;100580.66;5015875;28;69474;-38
2023/09/18 09:40:36;;;;;;;;;;;;;;;33.34;64.57;100592.00;5016290;28;65304;-38
2023/09/18 09:43:08;;;;;;;;;;;;;;;33.28;64.97;100597.63;5012209;28;69891;-38
2023/09/18 09:45:38;;;;;;;;;;;;;;;33.25;65.04;100598.09;5017707;28;66994;-39
2023/09/18 09:48:08;;;;;;;;;;;;;;;33.25;64.98;100604.34;5005011;28;70824;-39
2023/09/18 09:50:48;;;;;;;;;;;;;;;33.29;65.26;100610.97;5028750;28;67390;-38
2023/09/18 09:53:18;;;;;;;;;;;;;;;33.33;65.07;100606.69;5013189;28;70451;-39
2023/09/18 09:55:54;;;;;;;;;;;;;;;33.29;65.38;100605.53;5021460;28;65938;-44
2023/09/18 09:58:31;;;;;;;;;;;;;;;33.35;65.50;100611.91;4979372;28;69237;-40
2023/09/18 10:01:05;;;;;;;;;;;;;;;33.38;65.60;100625.81;5024393;28;66279;-39
2023/09/18 10:03:35;;;;;;;;;;;;;;;33.35;65.68;100630.94;4988810;28;68904;-38
2023/09/18 10:06:06;;;;;;;;;;;;;;;33.36;65.67;100619.78;5019815;28;66238;-39
2023/09/18 10:08:37;;;;;;;;;;;;;;;33.35;65.81;100620.88;5017960;28;69821;-37
2023/09/18 10:11:09;;;;;;;;;;;;;;;33.42;66.06;100636.19;5017009;28;66003;-37
2023/09/18 10:13:46;;;;;;;;;;;;;;;33.39;66.20;100640.22;5020534;28;70644;-38
2023/09/18 10:16:25;;;;;;;;;;;;;;;33.35;66.29;100637.19;4993602;28;65892;-38
2023/09/18 10:18:56;;;;;;;;;;;;;;;33.31;66.70;100636.00;5018269;28;69754;-39
2023/09/18 10:21:31;;;;;;;;;;;;;;;33.36;66.52;100638.81;5004831;28;65851;-37
2023/09/18 10:24:14;;;;;;;;;;;;;;;33.37;66.79;100645.06;5004764;28;69999;-39
2023/09/18 10:27:00;;;;;;;;;;;;;;;33.30;66.83;100647.13;5018136;28;67207;-38
2023/09/18 10:29:31;;;;;;;;;;;;;;;33.30;67.04;100649.84;5014083;28;70162;-39
2023/09/18 10:32:28;;;;;;;;;;;;;;;33.25;67.00;100639.69;4997206;28;65582;-37
2023/09/18 10:35:16;;;;;;;;;;;;;;;33.27;67.57;100640.28;4990163;28;70311;-39
2023/09/18 10:37:50;;;;;;;;;;;;;;;33.27;67.44;100640.28;5004186;28;67729;-38
2023/09/18 10:40:21;;;;;;;;;;;;;;;33.34;67.49;100640.94;5021530;28;69704;-39
2023/09/18 10:42:52;;;;;;;;;;;;;;;33.46;67.36;100648.22;5002173;28;66562;-38
2023/09/18 10:45:22;;;;;;;;;;;;;;;33.51;66.82;100645.59;5021653;28;69442;-40
2023/09/18 10:47:52;;;;;;;;;;;;;;;33.38;67.87;100641.31;4997047;28;65124;-39
2023/09/18 10:50:26;;;;;;;;;;;;;;;33.38;67.70;100655.72;4999371;28;70672;-40
2023/09/18 10:52:59;;;;;;;;;;;;;;;33.36;68.06;100660.56;4990660;28;66353;-38
2023/09/18 10:55:29;;;;;;;;;;;;;;;33.43;67.56;100667.75;4997049;28;69869;-39
2023/09/18 10:57:59;;;;;;;;;;;;;;;33.55;67.11;100671.28;4994953;28;66303;-37
2023/09/18 11:00:36;;;;;;;;;;;;;;;33.60;66.66;100679.56;5001480;28;69208;-39
2023/09/18 11:03:13;;;;;;;;;;;;;;;33.62;66.38;100674.66;5004161;28;65803;-39
2023/09/18 11:05:47;;;;;;;;;;;;;;;33.64;66.63;100675.25;5005012;28;70560;-38
2023/09/18 11:08:30;;;;;;;;;;;;;;;33.64;66.58;100680.69;5002697;28;67170;-38
2023/09/18 11:11:11;;;;;;;;;;;;;;;33.64;65.98;100688.84;4993691;28;69949;-39
2023/09/18 11:13:42;;;;;;;;;;;;;;;33.65;66.36;100679.63;5017165;28;66569;-40
2023/09/18 11:16:26;;;;;;;;;;;;;;;33.65;65.90;100684.25;5012150;28;70269;-39
2023/09/18 11:18:59;;;;;;;;;;;;;;;33.64;66.27;100683.41;4999596;28;66872;-38
2023/09/18 11:21:30;;;;;;;;;;;;;;;33.65;66.26;100687.78;5000619;28;71064;-39
2023/09/18 11:24:04;;;;;;;;;;;;;;;33.65;66.08;100689.69;5005437;28;65224;-40
2023/09/18 11:26:35;;;;;;;;;;;;;;;33.63;66.40;100698.09;4998454;28;69885;-37
2023/09/18 11:29:09;;;;;;;;;;;;;;;33.65;65.92;100700.56;5007965;28;66926;-40
2023/09/18 11:31:45;;;;;;;;;;;;;;;33.62;66.54;100696.44;4998316;28;69792;-39
2023/09/18 11:34:16;;;;;;;;;;;;;;;33.61;66.17;100702.94;5002932;28;66074;-38
2023/09/18 11:36:45;;;;;;;;;;;;;;;33.59;66.67;100705.91;5005565;28;70549;-39
2023/09/18 11:39:38;;;;;;;;;;;;;;;33.56;66.32;100714.53;5000999;28;66660;-39
2023/09/18 11:42:09;;;;;;;;;;;;;;;33.55;66.82;100717.53;4995745;28;70125;-39
2023/09/18 11:44:46;;;;;;;;;;;;;;;33.52;66.76;100705.25;5005837;28;65715;-38
2023/09/18 11:47:19;;;;;;;;;;;;;;;33.53;67.22;100708.78;5009797;28;69565;-38
2023/09/18 11:49:53;;;;;;;;;;;;;;;33.50;67.02;100715.50;5021895;28;66825;-41
2023/09/18 11:52:25;;;;;;;;;;;;;;;33.49;67.05;100723.88;4988527;28;69206;-41
2023/09/18 11:54:58;;;;;;;;;;;;;;;33.48;67.23;100722.25;5012921;28;66213;-39
2023/09/18 11:57:30;;;;;;;;;;;;;;;33.47;67.35;100726.03;5016942;28;69456;-39
2023/09/18 12:00:11;;;;;;;;;;;;;;;33.47;67.12;100728.75;5014636;28;66061;-41
2023/09/18 12:02:46;;;;;;;;;;;;;;;33.46;66.88;100735.25;5028717;28;70270;-40
2023/09/18 12:05:18;;;;;;;;;;;;;;;33.44;67.18;100737.41;5017911;28;66511;-39
2023/09/18 12:07:49;;;;;;;;;;;;;;;33.44;67.56;100738.22;5016892;28;70169;-40
2023/09/18 12:10:23;;;;;;;;;;;;;;;33.43;67.57;100752.03;5013462;28;65472;-39
2023/09/18 12:13:00;;;;;;;;;;;;;;;33.43;67.75;100754.75;5016580;28;70129;-39
2023/09/18 12:15:29;;;;;;;;;;;;;;;33.41;67.49;100757.75;5014677;28;66220;-39
2023/09/18 12:18:06;;;;;;;;;;;;;;;33.16;67.85;100717.25;5021342;28;69299;-39
2023/09/18 12:20:37;;;;;;;;;;;;;;;33.37;68.11;100754.66;5012907;28;66690;-39
2023/09/18 12:23:09;;;;;;;;;;;;;;;33.33;68.14;100753.50;4998285;28;70300;-39
2023/09/18 12:25:40;;;;;;;;;;;;;;;33.33;68.60;100764.38;5005348;28;67093;-39
2023/09/18 12:28:10;;;;;;;;;;;;;;;33.31;68.37;100766.50;5019683;28;70127;-39
2023/09/18 12:30:40;;;;;;;;;;;;;;;33.29;68.24;100771.38;5007325;28;68133;-39
2023/09/18 12:33:10;;;;;;;;;;;;;;;33.29;68.60;100779.53;5018931;28;70758;-38
2023/09/18 12:35:41;;;;;;;;;;;;;;;33.26;68.53;100782.69;5016099;28;66637;-39
2023/09/18 12:38:13;;;;;;;;;;;;;;;33.26;68.69;100779.16;5015318;28;70340;-38
2023/09/18 12:40:45;;;;;;;;;;;;;;;33.25;68.88;100789.22;5010628;28;65575;-39
2023/09/18 12:43:15;;;;;;;;;;;;;;;33.25;68.67;100794.66;5008920;28;70012;-37
2023/09/18 12:45:45;;;;;;;;;;;;;;;33.26;69.12;100801.72;5016549;28;66923;-40
2023/09/18 12:48:15;;;;;;;;;;;;;;;33.25;68.97;100800.06;5015162;28;70524;-40
2023/09/18 12:50:44;;;;;;;;;;;;;;;33.25;68.89;100805.50;5021719;28;66412;-38
2023/09/18 12:53:15;;;;;;;;;;;;;;;33.25;69.11;100813.66;5018933;28;70577;-40
2023/09/18 12:55:45;;;;;;;;;;;;;;;33.26;69.42;100825.38;5022221;28;66461;-39
2023/09/18 12:58:19;;;;;;;;;;;;;;;33.24;69.68;100833.78;5019291;28;69798;-40
2023/09/18 13:00:50;;;;;;;;;;;;;;;33.22;69.91;100833.19;4992525;28;65459;-40